createdAt,value
2023-11-17T00:00:09.298Z,8.10
2023-11-17T00:02:37.349Z,8.20
2023-11-17T00:05:05.482Z,8.20
2023-11-17T00:07:32.912Z,8.10
2023-11-17T00:10:00.463Z,8.10
2023-11-17T00:12:27.947Z,8.20
2023-11-17T00:14:55.453Z,8.10
2023-11-17T00:17:23.524Z,8.10
2023-11-17T00:19:52.585Z,8.10
2023-11-17T00:22:21.703Z,8.10
2023-11-17T00:24:49.451Z,8.10
2023-11-17T00:27:17.996Z,8.10
2023-11-17T00:29:45.849Z,8.10
2023-11-17T00:32:13.235Z,8.10
2023-11-17T00:34:40.827Z,8.10
2023-11-17T00:37:09.110Z,8.10
2023-11-17T00:39:38.537Z,8.10
2023-11-17T00:42:06.304Z,8.10
2023-11-17T00:44:34.307Z,8.10
2023-11-17T00:47:05.429Z,8.10
2023-11-17T00:49:33.141Z,8.20
2023-11-17T00:52:02.202Z,8.10
2023-11-17T00:54:32.158Z,8.10
2023-11-17T00:56:59.548Z,8.10
2023-11-17T00:59:26.993Z,8.00
2023-11-17T01:01:54.743Z,8.00
2023-11-17T01:04:22.693Z,8.00
2023-11-17T01:06:55.648Z,8.00
2023-11-17T01:09:25.135Z,8.00
2023-11-17T01:11:53.513Z,8.00
2023-11-17T01:14:21.184Z,8.00
2023-11-17T01:16:49.806Z,8.10
2023-11-17T01:19:17.345Z,8.10
2023-11-17T01:21:44.985Z,8.10
2023-11-17T01:24:12.487Z,8.10
2023-11-17T01:26:39.906Z,8.10
2023-11-17T01:29:07.347Z,8.10
2023-11-17T01:31:34.720Z,8.00
2023-11-17T01:34:02.258Z,8.00
2023-11-17T01:36:29.725Z,8.10
2023-11-17T01:38:58.207Z,8.00
2023-11-17T01:41:25.673Z,8.10
2023-11-17T01:43:53.217Z,8.10
2023-11-17T01:46:22.702Z,8.10
2023-11-17T01:48:50.650Z,8.10
2023-11-17T01:51:18.090Z,8.10
2023-11-17T01:53:46.156Z,8.10
2023-11-17T01:56:13.821Z,8.10
2023-11-17T01:58:41.281Z,8.10
2023-11-17T02:01:11.694Z,8.10
2023-11-17T02:03:41.502Z,8.20
2023-11-17T02:06:24.367Z,8.20
2023-11-17T02:09:03.945Z,8.10
2023-11-17T02:11:38.953Z,8.10
2023-11-17T02:14:19.771Z,8.10
2023-11-17T02:16:52.019Z,8.20
2023-11-17T02:19:30.057Z,8.20
2023-11-17T02:22:04.022Z,8.10
2023-11-17T02:24:37.746Z,8.10
2023-11-17T02:27:51.614Z,8.10
2023-11-17T02:30:21.120Z,8.10
2023-11-17T02:32:51.439Z,8.10
2023-11-17T02:35:19.190Z,8.10
2023-11-17T02:37:51.444Z,8.10
2023-11-17T02:40:23.791Z,8.20
2023-11-17T02:42:54.535Z,8.20
2023-11-17T02:45:22.374Z,8.20
2023-11-17T02:47:50.567Z,8.20
2023-11-17T02:50:32.391Z,8.20
2023-11-17T02:53:21.362Z,8.20
2023-11-17T02:55:49.326Z,8.20
2023-11-17T02:58:18.365Z,8.20
2023-11-17T03:00:53.139Z,8.20
2023-11-17T03:03:24.416Z,8.20
2023-11-17T03:06:00.364Z,8.20
2023-11-17T03:08:28.065Z,8.10
2023-11-17T03:11:02.246Z,8.10
2023-11-17T03:13:33.162Z,8.10
2023-11-17T03:16:00.985Z,8.00
2023-11-17T03:18:28.908Z,8.00
2023-11-17T03:21:03.117Z,7.90
2023-11-17T03:23:33.959Z,7.90
2023-11-17T03:26:01.829Z,7.90
2023-11-17T03:28:30.191Z,7.80
2023-11-17T03:30:57.651Z,7.70
2023-11-17T03:33:25.070Z,7.70
2023-11-17T03:35:57.008Z,7.70
2023-11-17T03:38:24.486Z,7.70
2023-11-17T03:40:51.933Z,7.80
2023-11-17T03:43:19.500Z,7.80
2023-11-17T03:45:50.865Z,7.80
2023-11-17T03:48:18.581Z,7.80
2023-11-17T03:50:46.000Z,7.80
2023-11-17T03:53:14.019Z,7.80
2023-11-17T03:55:43.254Z,7.80
2023-11-17T03:58:10.736Z,7.80
2023-11-17T04:00:38.693Z,7.80
2023-11-17T04:03:06.352Z,7.80
2023-11-17T04:05:34.289Z,7.90
2023-11-17T04:08:01.844Z,7.90
2023-11-17T04:10:29.402Z,7.90
2023-11-17T04:12:56.837Z,7.90
2023-11-17T04:15:24.357Z,7.90
2023-11-17T04:17:51.779Z,7.90
2023-11-17T04:20:20.382Z,7.90
2023-11-17T04:22:47.819Z,7.90
2023-11-17T04:25:15.286Z,7.90
2023-11-17T04:27:44.015Z,7.90
2023-11-17T04:30:12.902Z,8.00
2023-11-17T04:32:40.927Z,7.90
2023-11-17T04:35:09.698Z,8.00
2023-11-17T04:37:39.494Z,8.00
2023-11-17T04:40:11.792Z,8.00
2023-11-17T04:42:40.564Z,8.00
2023-11-17T04:45:10.156Z,8.00
2023-11-17T04:47:38.230Z,8.00
2023-11-17T04:50:10.106Z,8.00
2023-11-17T04:52:37.685Z,7.90
2023-11-17T04:55:07.157Z,8.00
2023-11-17T04:57:38.329Z,8.00
2023-11-17T05:00:06.864Z,7.90
2023-11-17T05:02:34.631Z,8.00
2023-11-17T05:05:02.671Z,8.00
2023-11-17T05:07:30.360Z,8.00
2023-11-17T05:09:58.072Z,8.00
2023-11-17T05:12:25.449Z,8.10
2023-11-17T05:14:54.151Z,8.10
2023-11-17T05:17:23.547Z,8.00
2023-11-17T05:19:51.049Z,8.00
2023-11-17T05:22:21.216Z,7.90
2023-11-17T05:24:50.124Z,8.00
2023-11-17T05:27:17.996Z,7.90
2023-11-17T05:29:45.553Z,8.00
2023-11-17T05:32:12.990Z,8.10
2023-11-17T05:34:40.480Z,8.00
2023-11-17T05:37:07.973Z,8.10
2023-11-17T05:39:36.464Z,8.10
2023-11-17T05:42:04.373Z,8.10
2023-11-17T05:44:32.002Z,8.10
2023-11-17T05:47:00.289Z,8.10
2023-11-17T05:49:28.027Z,8.10
2023-11-17T05:51:56.111Z,8.10
2023-11-17T05:54:23.554Z,8.10
2023-11-17T05:56:51.012Z,8.10
2023-11-17T05:59:19.510Z,8.00
2023-11-17T06:01:47.492Z,8.10
2023-11-17T06:04:15.087Z,8.10
2023-11-17T06:06:42.631Z,8.10
2023-11-17T06:09:13.652Z,8.10
2023-11-17T06:11:41.518Z,8.10
2023-11-17T06:14:09.352Z,8.00
2023-11-17T06:16:36.957Z,8.00
2023-11-17T06:19:05.008Z,8.10
2023-11-17T06:21:33.449Z,8.10
2023-11-17T06:24:00.951Z,8.00
2023-11-17T06:26:29.214Z,8.00
2023-11-17T06:29:02.596Z,8.00
2023-11-17T06:31:34.881Z,8.00
2023-11-17T06:34:02.899Z,8.00
2023-11-17T06:36:32.036Z,7.90
2023-11-17T06:39:00.215Z,8.00
2023-11-17T06:41:31.787Z,7.90
2023-11-17T06:44:00.245Z,7.90
2023-11-17T06:46:28.357Z,7.90
2023-11-17T06:48:56.261Z,8.00
2023-11-17T06:51:25.664Z,8.00
2023-11-17T06:53:53.484Z,7.80
2023-11-17T06:56:22.286Z,7.90
2023-11-17T06:58:50.312Z,7.90
2023-11-17T07:01:21.316Z,7.90
2023-11-17T07:03:51.231Z,7.90
2023-11-17T07:06:20.143Z,8.00
2023-11-17T07:08:48.354Z,8.00
2023-11-17T07:11:16.999Z,8.00
2023-11-17T07:13:53.674Z,8.00
2023-11-17T07:16:22.044Z,8.00
2023-11-17T07:18:49.502Z,8.00
2023-11-17T07:21:17.240Z,8.00
2023-11-17T07:23:51.283Z,8.00
2023-11-17T07:26:19.231Z,8.00
2023-11-17T07:28:47.548Z,7.90
2023-11-17T07:31:19.069Z,7.90
2023-11-17T07:33:46.635Z,7.90
2023-11-17T07:36:19.757Z,8.10
2023-11-17T07:38:53.195Z,8.00
2023-11-17T07:41:20.853Z,8.10
2023-11-17T07:43:48.450Z,8.10
2023-11-17T07:46:15.987Z,8.10
2023-11-17T07:48:53.834Z,8.10
2023-11-17T07:51:24.790Z,8.10
2023-11-17T07:53:52.984Z,8.20
2023-11-17T07:56:21.026Z,8.20
2023-11-17T07:58:50.105Z,8.20
2023-11-17T08:01:18.983Z,8.20
2023-11-17T08:03:46.869Z,8.30
2023-11-17T08:06:14.992Z,8.40
2023-11-17T08:08:42.428Z,8.40
2023-11-17T08:11:10.498Z,8.40
2023-11-17T08:13:38.828Z,8.40
2023-11-17T08:16:07.587Z,8.40
2023-11-17T08:18:35.110Z,8.50
2023-11-17T08:21:04.603Z,8.50
2023-11-17T08:23:32.279Z,8.50
2023-11-17T08:26:00.813Z,8.60
2023-11-17T08:28:29.521Z,8.60
2023-11-17T08:30:59.478Z,8.60
2023-11-17T08:33:29.134Z,8.60
2023-11-17T08:35:58.461Z,8.50
2023-11-17T08:38:26.641Z,8.60
2023-11-17T08:40:56.463Z,8.60
2023-11-17T08:43:26.277Z,8.60
2023-11-17T08:45:54.193Z,8.60
2023-11-17T08:48:21.865Z,8.60
2023-11-17T08:50:49.298Z,8.60
2023-11-17T08:53:17.774Z,8.60
2023-11-17T08:55:45.844Z,8.60
2023-11-17T08:58:13.468Z,8.60
2023-11-17T09:00:42.270Z,8.70
2023-11-17T09:03:10.926Z,8.60
2023-11-17T09:05:39.111Z,8.70
2023-11-17T09:08:08.435Z,8.80
2023-11-17T09:10:35.998Z,8.90
2023-11-17T09:13:06.070Z,9.10
2023-11-17T09:15:36.215Z,9.20
2023-11-17T09:18:03.679Z,9.40
2023-11-17T09:20:31.308Z,9.50
2023-11-17T09:22:58.869Z,9.70
2023-11-17T09:25:26.494Z,9.70
2023-11-17T09:27:57.794Z,9.80
2023-11-17T09:30:26.481Z,9.90
2023-11-17T09:32:58.413Z,10.00
2023-11-17T09:35:28.178Z,10.00
2023-11-17T09:37:57.973Z,10.00
2023-11-17T09:40:30.679Z,10.00
2023-11-17T09:43:00.024Z,9.90
2023-11-17T09:45:31.213Z,9.90
2023-11-17T09:48:02.412Z,9.90
2023-11-17T09:50:31.564Z,9.90
2023-11-17T09:53:03.047Z,9.90
2023-11-17T09:55:32.608Z,9.90
2023-11-17T09:58:04.613Z,9.90
2023-11-17T10:00:34.478Z,9.90
2023-11-17T10:03:05.197Z,9.90
2023-11-17T10:05:37.287Z,9.90
2023-11-17T10:08:08.631Z,9.80
2023-11-17T10:10:43.613Z,9.90
2023-11-17T10:13:19.612Z,9.90
2023-11-17T10:15:56.560Z,9.90
2023-11-17T10:18:27.152Z,10.00
2023-11-17T10:20:55.648Z,10.00
2023-11-17T10:23:23.427Z,10.00
2023-11-17T10:25:57.680Z,10.00
2023-11-17T10:28:27.794Z,10.00
2023-11-17T10:31:01.707Z,10.00
2023-11-17T10:33:31.792Z,10.00
2023-11-17T10:36:10.432Z,10.00
2023-11-17T10:38:43.646Z,10.10
2023-11-17T10:41:15.456Z,10.10
2023-11-17T10:43:53.252Z,10.10
2023-11-17T10:46:27.717Z,10.10
2023-11-17T10:49:00.956Z,10.00
2023-11-17T10:51:30.079Z,9.90
2023-11-17T10:54:05.298Z,9.90
2023-11-17T10:56:37.227Z,9.90
2023-11-17T10:59:06.374Z,9.90
2023-11-17T11:01:37.361Z,9.90
2023-11-17T11:04:11.479Z,9.90
2023-11-17T11:06:40.068Z,9.90
2023-11-17T11:09:07.789Z,9.80
2023-11-17T11:11:35.626Z,9.80
2023-11-17T11:14:06.038Z,9.80
2023-11-17T11:16:34.425Z,9.80
2023-11-17T11:19:03.385Z,9.80
2023-11-17T11:21:34.747Z,9.90
2023-11-17T11:24:06.194Z,10.00
2023-11-17T11:26:33.948Z,9.90
2023-11-17T11:29:02.655Z,10.10
2023-11-17T11:31:32.234Z,10.20
2023-11-17T11:34:02.510Z,10.30
2023-11-17T11:36:30.091Z,10.30
2023-11-17T11:38:57.573Z,10.30
2023-11-17T11:41:25.638Z,10.20
2023-11-17T11:43:53.715Z,10.20
2023-11-17T11:46:25.226Z,10.20
2023-11-17T11:49:01.898Z,10.00
2023-11-17T11:51:32.934Z,10.00
2023-11-17T11:54:07.365Z,10.00
2023-11-17T11:56:37.184Z,10.30
2023-11-17T11:59:06.879Z,11.30
2023-11-17T12:01:36.211Z,12.60
2023-11-17T12:04:08.793Z,13.30
2023-11-17T12:06:39.662Z,13.40
2023-11-17T12:09:17.981Z,13.00
2023-11-17T12:11:46.701Z,12.50
2023-11-17T12:14:17.756Z,12.00
2023-11-17T12:16:56.417Z,11.70
2023-11-17T12:19:28.722Z,11.60
2023-11-17T12:22:01.014Z,11.60
2023-11-17T12:24:30.270Z,11.60
2023-11-17T12:26:59.227Z,11.80
2023-11-17T12:29:32.768Z,11.90
2023-11-17T12:32:04.606Z,11.80
2023-11-17T12:34:33.225Z,11.80
2023-11-17T12:37:03.878Z,11.70
2023-11-17T12:39:42.002Z,11.70
2023-11-17T12:42:22.009Z,12.20
2023-11-17T12:44:49.698Z,12.70
2023-11-17T12:47:25.644Z,13.10
2023-11-17T12:49:58.316Z,13.30
2023-11-17T12:52:26.562Z,13.10
2023-11-17T12:55:08.212Z,12.70
2023-11-17T12:57:36.897Z,12.20
2023-11-17T13:00:14.263Z,11.80
2023-11-17T13:02:42.568Z,11.60
2023-11-17T13:05:12.469Z,11.30
2023-11-17T13:07:40.641Z,11.00
2023-11-17T13:10:12.484Z,10.80
2023-11-17T13:12:40.911Z,10.70
2023-11-17T13:15:12.283Z,10.60
2023-11-17T13:17:40.047Z,10.60
2023-11-17T13:20:15.243Z,10.50
2023-11-17T13:22:48.330Z,10.60
2023-11-17T13:25:16.099Z,10.70
2023-11-17T13:27:47.752Z,10.70
2023-11-17T13:30:15.960Z,10.80
2023-11-17T13:32:57.210Z,10.70
2023-11-17T13:35:30.063Z,10.70
2023-11-17T13:38:04.982Z,10.60
2023-11-17T13:40:35.313Z,10.50
2023-11-17T13:43:11.449Z,10.40
2023-11-17T13:45:40.737Z,10.30
2023-11-17T13:48:13.616Z,10.30
2023-11-17T13:50:52.726Z,10.30
2023-11-17T13:53:23.399Z,10.30
2023-11-17T13:55:54.456Z,10.30
2023-11-17T13:58:22.258Z,10.30
2023-11-17T14:00:50.552Z,10.40
2023-11-17T14:03:18.248Z,10.50
2023-11-17T14:05:46.844Z,10.50
2023-11-17T14:08:14.486Z,10.20
2023-11-17T14:10:42.928Z,9.90
2023-11-17T14:13:11.570Z,9.80
2023-11-17T14:15:48.310Z,9.80
2023-11-17T14:18:23.298Z,9.90
2023-11-17T14:20:51.068Z,10.00
2023-11-17T14:23:18.772Z,10.20
2023-11-17T14:25:46.850Z,10.30
2023-11-17T14:28:31.283Z,10.40
2023-11-17T14:31:05.332Z,10.40
2023-11-17T14:33:36.646Z,10.40
2023-11-17T14:36:07.496Z,10.40
2023-11-17T14:38:35.157Z,10.30
2023-11-17T14:41:02.885Z,10.30
2023-11-17T14:43:30.586Z,10.20
2023-11-17T14:45:58.377Z,10.00
2023-11-17T14:48:26.666Z,9.90
2023-11-17T14:50:55.862Z,9.70
2023-11-17T14:53:25.767Z,9.50
2023-11-17T14:55:54.604Z,9.50
2023-11-17T14:58:22.543Z,9.60
2023-11-17T15:00:51.924Z,9.70
2023-11-17T15:03:20.095Z,9.80
2023-11-17T15:05:48.959Z,9.90
2023-11-17T15:08:16.496Z,9.90
2023-11-17T15:10:44.887Z,9.80
2023-11-17T15:13:13.949Z,9.70
2023-11-17T15:15:43.345Z,9.70
2023-11-17T15:18:13.686Z,9.80
2023-11-17T15:20:41.774Z,9.70
2023-11-17T15:23:10.519Z,9.60
2023-11-17T15:25:38.676Z,9.60
2023-11-17T15:28:25.058Z,9.60
2023-11-17T15:30:56.091Z,9.60
2023-11-17T15:33:24.528Z,9.50
2023-11-17T15:35:52.318Z,9.50
2023-11-17T15:38:23.752Z,9.50
2023-11-17T15:40:51.680Z,9.50
2023-11-17T15:43:19.701Z,9.50
2023-11-17T15:45:47.947Z,9.40
2023-11-17T15:48:16.029Z,9.30
2023-11-17T15:50:44.005Z,9.20
2023-11-17T15:53:11.884Z,9.10
2023-11-17T15:55:39.956Z,9.10
2023-11-17T15:58:10.056Z,9.00
2023-11-17T16:00:39.288Z,9.00
2023-11-17T16:03:07.883Z,8.90
2023-11-17T16:05:36.868Z,8.80
2023-11-17T16:08:10.236Z,8.60
2023-11-17T16:10:39.776Z,8.60
2023-11-17T16:13:08.541Z,8.60
2023-11-17T16:15:37.203Z,8.50
2023-11-17T16:18:06.241Z,8.60
2023-11-17T16:20:34.765Z,8.60
2023-11-17T16:23:02.951Z,8.60
2023-11-17T16:25:32.891Z,8.60
2023-11-17T16:28:04.909Z,8.50
2023-11-17T16:30:33.561Z,8.50
2023-11-17T16:33:02.430Z,8.40
2023-11-17T16:35:30.946Z,8.40
2023-11-17T16:37:58.684Z,8.40
2023-11-17T16:40:29.451Z,8.30
2023-11-17T16:43:03.220Z,8.50
2023-11-17T16:45:35.336Z,8.50
2023-11-17T16:48:05.251Z,8.50
2023-11-17T16:50:43.730Z,8.50
2023-11-17T16:53:12.761Z,8.60
2023-11-17T16:55:41.170Z,8.60
2023-11-17T16:58:10.576Z,8.70
2023-11-17T17:00:41.026Z,8.70
2023-11-17T17:03:09.612Z,8.70
2023-11-17T17:05:38.468Z,8.80
2023-11-17T17:08:08.826Z,8.70
2023-11-17T17:10:38.635Z,8.70
2023-11-17T17:13:06.376Z,8.80
2023-11-17T17:15:36.432Z,8.80
2023-11-17T17:18:09.737Z,8.80
2023-11-17T17:20:40.450Z,8.90
2023-11-17T17:23:14.021Z,8.80
2023-11-17T17:25:42.817Z,8.80
2023-11-17T17:28:16.158Z,8.80
2023-11-17T17:30:44.371Z,8.90
2023-11-17T17:33:12.815Z,8.80
2023-11-17T17:35:46.966Z,8.80
2023-11-17T17:38:16.050Z,8.80
2023-11-17T17:40:44.390Z,8.70
2023-11-17T17:43:14.202Z,8.70
2023-11-17T17:45:45.450Z,8.60
2023-11-17T17:48:14.879Z,8.50
2023-11-17T17:50:42.737Z,8.50
2023-11-17T17:53:10.411Z,8.40
2023-11-17T17:55:38.318Z,8.20
2023-11-17T17:58:08.930Z,8.20
2023-11-17T18:00:38.434Z,8.10
2023-11-17T18:03:06.846Z,8.10
2023-11-17T18:05:36.080Z,8.10
2023-11-17T18:08:04.007Z,7.90
2023-11-17T18:10:33.299Z,7.90
2023-11-17T18:13:02.468Z,7.80
2023-11-17T18:15:30.199Z,7.80
2023-11-17T18:17:59.511Z,7.70
2023-11-17T18:20:28.796Z,7.70
2023-11-17T18:22:57.171Z,7.60
2023-11-17T18:25:25.178Z,7.60
2023-11-17T18:27:56.322Z,7.60
2023-11-17T18:30:25.032Z,7.60
2023-11-17T18:32:53.333Z,7.50
2023-11-17T18:35:24.807Z,7.60
2023-11-17T18:37:53.300Z,7.50
2023-11-17T18:40:29.964Z,7.60
2023-11-17T18:42:59.240Z,7.50
2023-11-17T18:45:29.532Z,7.60
2023-11-17T18:47:59.890Z,7.60
2023-11-17T18:50:29.583Z,7.60
2023-11-17T18:52:58.906Z,7.70
2023-11-17T18:55:27.380Z,7.90
2023-11-17T18:57:55.215Z,7.90
2023-11-17T19:00:23.320Z,8.00
2023-11-17T19:02:54.258Z,8.00
2023-11-17T19:05:23.129Z,8.10
2023-11-17T19:07:52.226Z,8.10
2023-11-17T19:10:25.939Z,8.10
2023-11-17T19:12:54.493Z,8.10
2023-11-17T19:15:25.029Z,8.10
2023-11-17T19:17:52.763Z,8.30
2023-11-17T19:20:23.988Z,8.10
2023-11-17T19:22:52.123Z,8.20
2023-11-17T19:25:20.170Z,8.20
2023-11-17T19:27:48.093Z,8.30
2023-11-17T19:30:17.054Z,8.30
2023-11-17T19:32:51.236Z,8.20
2023-11-17T19:35:25.698Z,8.30
2023-11-17T19:37:53.556Z,8.30
2023-11-17T19:40:22.596Z,8.30
2023-11-17T19:42:50.591Z,8.30
2023-11-17T19:45:21.992Z,8.40
2023-11-17T19:47:51.242Z,8.40
2023-11-17T19:50:20.417Z,8.40
2023-11-17T19:52:50.880Z,8.40
2023-11-17T19:55:39.213Z,8.40
2023-11-17T19:58:30.730Z,8.30
2023-11-17T20:01:05.820Z,8.20
2023-11-17T20:03:35.941Z,8.10
2023-11-17T20:06:20.005Z,8.00
2023-11-17T20:08:47.664Z,7.90
2023-11-17T20:11:45.676Z,7.90
2023-11-17T20:17:44.797Z,7.70
2023-11-17T20:20:21.960Z,7.70
2023-11-17T20:22:52.333Z,7.60
2023-11-17T20:25:24.550Z,7.50
2023-11-17T20:27:53.353Z,7.50
2023-11-17T20:30:21.859Z,7.60
2023-11-17T20:32:51.482Z,7.60
2023-11-17T20:35:20.486Z,7.50
2023-11-17T20:37:48.899Z,7.50
2023-11-17T20:40:16.503Z,7.50
2023-11-17T20:42:45.930Z,7.60
2023-11-17T20:45:17.445Z,7.60
2023-11-17T20:47:48.360Z,7.70
2023-11-17T20:50:17.552Z,7.70
2023-11-17T20:52:46.492Z,7.70
2023-11-17T20:55:14.992Z,7.60
2023-11-17T20:57:44.881Z,7.60
2023-11-17T21:00:21.408Z,7.50
2023-11-17T21:02:53.603Z,7.50
2023-11-17T21:05:22.874Z,7.50
2023-11-17T21:07:52.715Z,7.50
2023-11-17T21:10:23.318Z,7.50
2023-11-17T21:12:54.291Z,7.50
2023-11-17T21:15:23.578Z,7.50
2023-11-17T21:17:54.381Z,7.50
2023-11-17T21:20:22.368Z,7.40
2023-11-17T21:22:50.786Z,7.40
2023-11-17T21:25:20.193Z,7.40
2023-11-17T21:27:50.100Z,7.40
2023-11-17T21:30:18.379Z,7.30
2023-11-17T21:32:47.001Z,7.10
2023-11-17T21:35:15.246Z,7.00
2023-11-17T21:37:43.648Z,7.00
2023-11-17T21:40:14.805Z,7.00
2023-11-17T21:42:47.093Z,7.00
2023-11-17T21:45:22.622Z,7.00
2023-11-17T21:47:55.938Z,7.00
2023-11-17T21:50:25.337Z,6.90
2023-11-17T21:52:56.530Z,6.90
2023-11-17T21:55:24.235Z,6.90
2023-11-17T21:57:52.480Z,6.90
2023-11-17T22:00:20.922Z,6.90
2023-11-17T22:02:50.077Z,6.90
2023-11-17T22:05:19.756Z,6.90
2023-11-17T22:07:49.004Z,6.90
2023-11-17T22:10:17.282Z,6.90
2023-11-17T22:12:50.084Z,6.90
2023-11-17T22:15:19.852Z,7.00
2023-11-17T22:17:48.211Z,6.90
2023-11-17T22:20:19.068Z,6.90
2023-11-17T22:22:50.277Z,6.90
2023-11-17T22:25:22.818Z,6.80
2023-11-17T22:27:53.051Z,6.70
2023-11-17T22:30:25.275Z,6.60
2023-11-17T22:32:55.778Z,6.60
2023-11-17T22:35:24.882Z,6.50
2023-11-17T22:37:54.644Z,6.30
2023-11-17T22:40:23.837Z,6.20
2023-11-17T22:42:53.116Z,6.20
2023-11-17T22:45:21.109Z,6.20
2023-11-17T22:47:49.609Z,6.20
2023-11-17T22:50:20.400Z,6.10
2023-11-17T22:52:52.487Z,6.20
2023-11-17T22:55:21.468Z,6.20
2023-11-17T22:57:50.215Z,6.20
2023-11-17T23:00:42.356Z,6.20
2023-11-17T23:03:10.947Z,6.20
2023-11-17T23:05:43.364Z,6.20
2023-11-17T23:08:13.474Z,6.20
2023-11-17T23:10:42.360Z,6.20
2023-11-17T23:13:12.762Z,6.20
2023-11-17T23:15:40.654Z,6.30
2023-11-17T23:18:08.480Z,6.20
2023-11-17T23:20:37.457Z,6.10
2023-11-17T23:23:05.027Z,6.10
2023-11-17T23:25:37.664Z,6.10
2023-11-17T23:28:06.792Z,6.10
2023-11-17T23:30:36.162Z,6.00
2023-11-17T23:33:08.886Z,5.90
2023-11-17T23:35:37.009Z,5.90
2023-11-17T23:38:05.021Z,5.80
2023-11-17T23:40:32.901Z,5.70
2023-11-17T23:43:01.964Z,5.70
2023-11-17T23:45:30.857Z,5.60
2023-11-17T23:47:58.724Z,5.60
2023-11-17T23:50:26.752Z,5.60
2023-11-17T23:52:54.868Z,5.60
2023-11-17T23:55:22.511Z,5.60
2023-11-17T23:57:50.354Z,5.60
